North River, New York
Current Conditions -  °F | °C
As of 6:53 AM on Monday 26 Jan 2015 (Local Time) from KGFL Reporting Station
Clear Clear  
Wind Chill: -4°   Ceiling: Unl
Heat Index:   Visibility: 10mi
Dew Point: -3°   Wind: 6mph
Humidity: 67%   Direction: 350°N
Pressure: 30.13"   Gusts: NA
Location:  43.74°N, 74.05°W
Report Text: KGFL 261153Z AUTO 35005KT 10SM CLR M14/M19 A3013 RMK AO2 SLP218 T11441194 11144 21167 52005
Loading
Personal Weather Stations






























Interactive Weather Map New forecast layout! Learn more

10-Day Weather Forecast

Advertisements
Track Severe Weather on mobile